Česky Dansk Deutsch English Español Suomi Français Magyar Italiano Nederlands norsk Polski Português svenska Türkçe

 

Het Weer

Altenstadt (Duitsland)

10:20, 23 augustus 2016 (GMT)

NWNNE
WE
SWSSE
Home            
Altenstadt Landsberg Lechfeld Oberpfaffenhofen Memmingen Fuerstenfeldbruck Augsburg Innsbruck-Flughafen Laupheim Schwaz Heliport Munchen Erding Hohenems-Dornbirn Neuburg / Donau Friedrichshafen Saint Gallen-Altenrhein Ingolstadt Resia Pass Konstanz Messstetten Stuttgart-Echterdingen Roth Bolzano

Om een weerknop op uw website of weblog te plaatsen, copieer onderstaande code en plak die in uw pagina. In het eerste vakje staat HTML-code, in het tweede vakje UBB-code.


Add to Google

Details

Wind speed:3 bf, 9 kn, 4.6 m/s, 10.4 miles/h, 16.7 km/h
Wind direction:ENE, 070°
Visibility:Greater than 10000 m, 10 km, 32800 ft, 6.2 miles
Clouds:Ein wenig bewölkt at 5000 ft, 1524 m
Temperature:20°C, 68°F
Dew-point:10°C, 50°F
Atmospheric pressure:1030 hPa, 772.6 mmHg, 30.42 inHg, 1.017 atm
Relative humidity:52.5 %
METAR:ETHA 231020Z 07009KT 9999 FEW050 20/10 Q1030 BLU+BLU+

Snelkoppelingen

Actuele weersinformatie van de hele wereld. Voeg locaties toe met het plus (+) symbool. Deze snelkoppelingen kunnen worden toegevoegd aan Google.

Lid van de Technetium groep

website free tracking
StatCounter NetStat W3C Validator

29-06-2022 12:29:41
astro.technetium.be money.technetium.be phote.technetium.be tafeltennistafel.technetium.be www.ligfiets.net